ENSH/SVJ METAR and TAF weather

Enter ICAO airport designator
Station Type Date Time Source
ENSH METAR 2019/06/15 11:50 UTC NOAA

ENSH 151150Z VRB03KT CAVOK 16/07 Q1018 RMK WIND 150FT 36016KT


Station Type Date Time Source
ENSH Decoded METAR 2019/06/15 11:50 UTC NOAA

Svolvaer / Helle, Norway (ENSH) 68-15N 014-40E 9M
Jun 15, 2019 - 07:50 AM EDT / 2019.06.15 1150 UTC
Wind: Variable at 3 MPH (3 KT):0
Visibility: greater than 7 mile(s):0
Temperature: 60 F (16 C)
Dew Point: 44 F (7 C)
Relative Humidity: 55%
Pressure (altimeter): 30.06 in. Hg (1018 hPa)
ob: ENSH 151150Z VRB03KT CAVOK 16/07 Q1018 RMK WIND 150FT 36016KT
cycle: 12

Station Type Date Time Source
ENSH TAF UTC NOAA

Error!

Example: see airport list